Terminal Aerodrome Forecast
Issued by NWS

Home | Current Version | Previous Version | Text Only | Print | Product List | Glossary On
Versions: 1 2 3 4 5 6 7 8 9 10 11 12 13
000
FTUS45 KGGW 182320
TAFSDY
TAF
KSDY 182320Z 1900/1924 03011KT P6SM VCSH OVC045
     FM190500 01005KT P6SM SCT070
     FM191400 04007KT P6SM SCT150
     FM191900 07010KT P6SM FEW170=

USA.gov is the U.S. government's official web portal to all federal, state and local government web resources and services.